Terminal Aerodrome Forecast
Issued by NWS Binghamton, NY

Home | Current Version | Previous Version | Text Only | Print | Product List | Glossary On
Versions: 1 2 3 4 5 6 7 8 9 10 11 12 13 14 15 16 17 18 19 20 21 22 23
009
FTUS41 KBGM 092341 RRA
TAFAVP
TAF
KAVP 092341Z 1000/1024 31007KT P6SM BKN080
     FM101100 25004KT P6SM BKN060
     FM101700 26008KT P6SM OVC035=

USA.gov is the U.S. government's official web portal to all federal, state and local government web resources and services.